sensor_id;sensor_type;location;lat;lon;timestamp;P1;durP1;ratioP1;P2;durP2;ratioP2
37339;SDS011;23223;51.006;7.610;2023-08-06T00:01:51;5.03;;;3.53;;
37339;SDS011;23223;51.006;7.610;2023-08-06T00:04:16;6.32;;;3.08;;
37339;SDS011;23223;51.006;7.610;2023-08-06T00:06:42;5.28;;;3.50;;
37339;SDS011;23223;51.006;7.610;2023-08-06T00:09:08;7.18;;;2.80;;
37339;SDS011;23223;51.006;7.610;2023-08-06T00:11:33;8.20;;;2.90;;
37339;SDS011;23223;51.006;7.610;2023-08-06T00:13:59;4.55;;;3.00;;
37339;SDS011;23223;51.006;7.610;2023-08-06T00:16:25;5.95;;;3.05;;
37339;SDS011;23223;51.006;7.610;2023-08-06T00:18:50;6.00;;;2.88;;
37339;SDS011;23223;51.006;7.610;2023-08-06T00:21:16;2.45;;;2.25;;
37339;SDS011;23223;51.006;7.610;2023-08-06T00:23:41;4.00;;;2.13;;
37339;SDS011;23223;51.006;7.610;2023-08-06T00:26:07;3.42;;;2.42;;
37339;SDS011;23223;51.006;7.610;2023-08-06T00:28:32;8.25;;;2.53;;
37339;SDS011;23223;51.006;7.610;2023-08-06T00:30:58;3.00;;;2.70;;
37339;SDS011;23223;51.006;7.610;2023-08-06T00:33:24;2.58;;;2.38;;
37339;SDS011;23223;51.006;7.610;2023-08-06T00:35:49;3.88;;;2.83;;
37339;SDS011;23223;51.006;7.610;2023-08-06T00:38:15;4.57;;;2.90;;
37339;SDS011;23223;51.006;7.610;2023-08-06T00:40:41;4.90;;;2.45;;
37339;SDS011;23223;51.006;7.610;2023-08-06T00:43:06;3.55;;;2.38;;
37339;SDS011;23223;51.006;7.610;2023-08-06T00:45:37;3.45;;;2.13;;
37339;SDS011;23223;51.006;7.610;2023-08-06T00:48:03;7.00;;;2.53;;
37339;SDS011;23223;51.006;7.610;2023-08-06T00:50:31;7.88;;;2.60;;
37339;SDS011;23223;51.006;7.610;2023-08-06T00:52:57;4.40;;;2.05;;
37339;SDS011;23223;51.006;7.610;2023-08-06T00:55:23;2.05;;;1.80;;
37339;SDS011;23223;51.006;7.610;2023-08-06T00:57:49;3.28;;;2.28;;
37339;SDS011;23223;51.006;7.610;2023-08-06T01:00:16;4.78;;;2.33;;
37339;SDS011;23223;51.006;7.610;2023-08-06T01:02:42;3.05;;;2.35;;
37339;SDS011;23223;51.006;7.610;2023-08-06T01:05:08;4.28;;;2.10;;
37339;SDS011;23223;51.006;7.610;2023-08-06T01:10:19;3.97;;;2.58;;
37339;SDS011;23223;51.006;7.610;2023-08-06T01:13:31;4.95;;;2.70;;
37339;SDS011;23223;51.006;7.610;2023-08-06T01:16:06;3.40;;;2.33;;
37339;SDS011;23223;51.006;7.610;2023-08-06T01:18:34;6.15;;;2.38;;
37339;SDS011;23223;51.006;7.610;2023-08-06T01:21:00;7.55;;;2.35;;
37339;SDS011;23223;51.006;7.610;2023-08-06T01:23:26;2.45;;;1.98;;
37339;SDS011;23223;51.006;7.610;2023-08-06T01:31:07;3.28;;;2.80;;
37339;SDS011;23223;51.006;7.610;2023-08-06T01:33:38;3.50;;;2.55;;
37339;SDS011;23223;51.006;7.610;2023-08-06T01:36:09;8.98;;;2.85;;
37339;SDS011;23223;51.006;7.610;2023-08-06T01:38:35;5.63;;;3.78;;
37339;SDS011;23223;51.006;7.610;2023-08-06T01:41:00;6.07;;;3.08;;
37339;SDS011;23223;51.006;7.610;2023-08-06T01:43:26;3.65;;;2.65;;
37339;SDS011;23223;51.006;7.610;2023-08-06T01:45:52;8.15;;;3.03;;
37339;SDS011;23223;51.006;7.610;2023-08-06T01:48:17;2.22;;;2.00;;
37339;SDS011;23223;51.006;7.610;2023-08-06T01:50:43;3.15;;;2.22;;
37339;SDS011;23223;51.006;7.610;2023-08-06T01:53:08;3.45;;;2.58;;
37339;SDS011;23223;51.006;7.610;2023-08-06T01:55:34;4.85;;;3.15;;
37339;SDS011;23223;51.006;7.610;2023-08-06T01:57:59;5.20;;;2.85;;
37339;SDS011;23223;51.006;7.610;2023-08-06T02:00:25;3.17;;;2.88;;
37339;SDS011;23223;51.006;7.610;2023-08-06T02:02:52;15.38;;;3.75;;
37339;SDS011;23223;51.006;7.610;2023-08-06T02:05:18;6.40;;;3.28;;
37339;SDS011;23223;51.006;7.610;2023-08-06T02:07:43;9.90;;;3.15;;
37339;SDS011;23223;51.006;7.610;2023-08-06T02:10:09;4.68;;;2.90;;
37339;SDS011;23223;51.006;7.610;2023-08-06T02:12:35;8.93;;;3.35;;
37339;SDS011;23223;51.006;7.610;2023-08-06T02:15:00;7.65;;;2.75;;
37339;SDS011;23223;51.006;7.610;2023-08-06T02:17:26;2.50;;;2.30;;
37339;SDS011;23223;51.006;7.610;2023-08-06T02:19:51;4.57;;;2.72;;
37339;SDS011;23223;51.006;7.610;2023-08-06T02:22:17;3.47;;;2.03;;
37339;SDS011;23223;51.006;7.610;2023-08-06T02:24:42;5.03;;;2.20;;
37339;SDS011;23223;51.006;7.610;2023-08-06T02:27:08;7.28;;;2.50;;
37339;SDS011;23223;51.006;7.610;2023-08-06T02:29:34;4.72;;;2.40;;
37339;SDS011;23223;51.006;7.610;2023-08-06T02:31:59;2.17;;;1.80;;
37339;SDS011;23223;51.006;7.610;2023-08-06T02:34:27;4.60;;;2.70;;
37339;SDS011;23223;51.006;7.610;2023-08-06T02:36:52;3.72;;;2.33;;
37339;SDS011;23223;51.006;7.610;2023-08-06T02:39:18;3.22;;;2.90;;
37339;SDS011;23223;51.006;7.610;2023-08-06T02:41:44;7.72;;;2.90;;
37339;SDS011;23223;51.006;7.610;2023-08-06T02:44:09;4.45;;;2.55;;
37339;SDS011;23223;51.006;7.610;2023-08-06T02:46:35;4.82;;;2.13;;
37339;SDS011;23223;51.006;7.610;2023-08-06T02:49:00;4.60;;;2.30;;
37339;SDS011;23223;51.006;7.610;2023-08-06T02:51:26;3.67;;;2.30;;
37339;SDS011;23223;51.006;7.610;2023-08-06T02:53:51;8.77;;;2.60;;
37339;SDS011;23223;51.006;7.610;2023-08-06T02:56:17;5.80;;;2.40;;
37339;SDS011;23223;51.006;7.610;2023-08-06T02:58:43;3.20;;;2.83;;
37339;SDS011;23223;51.006;7.610;2023-08-06T03:01:08;6.13;;;3.38;;
37339;SDS011;23223;51.006;7.610;2023-08-06T03:03:34;3.13;;;2.60;;
37339;SDS011;23223;51.006;7.610;2023-08-06T03:05:59;2.88;;;2.40;;
37339;SDS011;23223;51.006;7.610;2023-08-06T03:08:25;4.70;;;2.22;;
37339;SDS011;23223;51.006;7.610;2023-08-06T03:10:51;2.92;;;2.63;;
37339;SDS011;23223;51.006;7.610;2023-08-06T03:13:17;7.55;;;2.88;;
37339;SDS011;23223;51.006;7.610;2023-08-06T03:15:43;3.60;;;2.75;;
37339;SDS011;23223;51.006;7.610;2023-08-06T03:18:16;2.40;;;2.20;;
37339;SDS011;23223;51.006;7.610;2023-08-06T03:20:41;4.50;;;2.17;;
37339;SDS011;23223;51.006;7.610;2023-08-06T03:23:07;3.33;;;2.17;;
37339;SDS011;23223;51.006;7.610;2023-08-06T03:25:34;5.38;;;2.47;;
37339;SDS011;23223;51.006;7.610;2023-08-06T03:28:01;3.25;;;2.60;;
37339;SDS011;23223;51.006;7.610;2023-08-06T03:30:27;3.97;;;3.00;;
37339;SDS011;23223;51.006;7.610;2023-08-06T03:32:52;5.57;;;2.83;;
37339;SDS011;23223;51.006;7.610;2023-08-06T03:35:18;7.88;;;3.08;;
37339;SDS011;23223;51.006;7.610;2023-08-06T03:37:43;6.25;;;3.42;;
37339;SDS011;23223;51.006;7.610;2023-08-06T03:40:09;8.25;;;2.20;;
37339;SDS011;23223;51.006;7.610;2023-08-06T03:42:35;3.55;;;2.10;;
37339;SDS011;23223;51.006;7.610;2023-08-06T03:45:01;1.92;;;1.70;;
37339;SDS011;23223;51.006;7.610;2023-08-06T03:47:26;3.35;;;2.20;;
37339;SDS011;23223;51.006;7.610;2023-08-06T03:49:52;8.25;;;2.78;;
37339;SDS011;23223;51.006;7.610;2023-08-06T03:52:17;6.55;;;2.80;;
37339;SDS011;23223;51.006;7.610;2023-08-06T03:54:43;7.10;;;2.85;;
37339;SDS011;23223;51.006;7.610;2023-08-06T03:57:09;5.72;;;2.63;;
37339;SDS011;23223;51.006;7.610;2023-08-06T03:59:35;2.20;;;2.00;;
37339;SDS011;23223;51.006;7.610;2023-08-06T04:02:01;10.98;;;2.85;;
37339;SDS011;23223;51.006;7.610;2023-08-06T04:04:27;5.55;;;2.47;;
37339;SDS011;23223;51.006;7.610;2023-08-06T04:06:52;8.80;;;2.33;;
37339;SDS011;23223;51.006;7.610;2023-08-06T04:09:18;5.20;;;2.08;;
37339;SDS011;23223;51.006;7.610;2023-08-06T04:11:44;10.52;;;2.80;;
37339;SDS011;23223;51.006;7.610;2023-08-06T04:14:09;4.68;;;2.88;;
37339;SDS011;23223;51.006;7.610;2023-08-06T04:16:35;8.18;;;2.70;;
37339;SDS011;23223;51.006;7.610;2023-08-06T04:19:00;5.72;;;2.50;;
37339;SDS011;23223;51.006;7.610;2023-08-06T04:21:26;7.07;;;2.78;;
37339;SDS011;23223;51.006;7.610;2023-08-06T04:23:52;2.50;;;2.30;;
37339;SDS011;23223;51.006;7.610;2023-08-06T04:26:17;7.45;;;3.20;;
37339;SDS011;23223;51.006;7.610;2023-08-06T04:28:43;6.55;;;2.75;;
37339;SDS011;23223;51.006;7.610;2023-08-06T04:31:08;8.10;;;2.45;;
37339;SDS011;23223;51.006;7.610;2023-08-06T04:33:34;5.93;;;2.63;;
37339;SDS011;23223;51.006;7.610;2023-08-06T04:35:59;4.50;;;2.00;;
37339;SDS011;23223;51.006;7.610;2023-08-06T04:38:25;5.43;;;2.33;;
37339;SDS011;23223;51.006;7.610;2023-08-06T04:40:51;3.67;;;2.40;;
37339;SDS011;23223;51.006;7.610;2023-08-06T04:43:17;8.80;;;2.58;;
37339;SDS011;23223;51.006;7.610;2023-08-06T04:45:49;3.30;;;2.38;;
37339;SDS011;23223;51.006;7.610;2023-08-06T04:48:16;3.58;;;2.28;;
37339;SDS011;23223;51.006;7.610;2023-08-06T04:50:45;8.93;;;2.33;;
37339;SDS011;23223;51.006;7.610;2023-08-06T04:53:11;8.55;;;2.60;;
37339;SDS011;23223;51.006;7.610;2023-08-06T04:55:37;5.30;;;2.63;;
37339;SDS011;23223;51.006;7.610;2023-08-06T04:58:03;3.50;;;1.92;;
37339;SDS011;23223;51.006;7.610;2023-08-06T05:00:29;6.93;;;3.05;;
37339;SDS011;23223;51.006;7.610;2023-08-06T05:02:55;3.00;;;2.22;;
37339;SDS011;23223;51.006;7.610;2023-08-06T05:05:21;5.75;;;2.20;;
37339;SDS011;23223;51.006;7.610;2023-08-06T05:07:48;5.20;;;2.70;;
37339;SDS011;23223;51.006;7.610;2023-08-06T05:10:14;3.42;;;1.80;;
37339;SDS011;23223;51.006;7.610;2023-08-06T05:12:40;3.40;;;1.75;;
37339;SDS011;23223;51.006;7.610;2023-08-06T05:15:06;3.78;;;2.10;;
37339;SDS011;23223;51.006;7.610;2023-08-06T05:17:32;2.60;;;2.08;;
37339;SDS011;23223;51.006;7.610;2023-08-06T05:19:58;3.70;;;1.75;;
37339;SDS011;23223;51.006;7.610;2023-08-06T05:22:24;4.32;;;1.90;;
37339;SDS011;23223;51.006;7.610;2023-08-06T05:24:50;4.30;;;1.95;;
37339;SDS011;23223;51.006;7.610;2023-08-06T05:27:16;3.08;;;1.83;;
37339;SDS011;23223;51.006;7.610;2023-08-06T05:29:43;2.17;;;1.40;;
37339;SDS011;23223;51.006;7.610;2023-08-06T05:32:10;1.92;;;1.40;;
37339;SDS011;23223;51.006;7.610;2023-08-06T05:34:35;1.88;;;1.65;;
37339;SDS011;23223;51.006;7.610;2023-08-06T05:37:01;3.10;;;1.92;;
37339;SDS011;23223;51.006;7.610;2023-08-06T05:39:27;2.13;;;1.80;;
37339;SDS011;23223;51.006;7.610;2023-08-06T05:41:52;1.42;;;1.33;;
37339;SDS011;23223;51.006;7.610;2023-08-06T05:44:18;3.10;;;1.63;;
37339;SDS011;23223;51.006;7.610;2023-08-06T05:46:44;5.20;;;1.63;;
37339;SDS011;23223;51.006;7.610;2023-08-06T05:49:09;1.48;;;1.38;;
37339;SDS011;23223;51.006;7.610;2023-08-06T05:51:35;3.08;;;1.95;;
37339;SDS011;23223;51.006;7.610;2023-08-06T05:54:00;3.45;;;1.67;;
37339;SDS011;23223;51.006;7.610;2023-08-06T05:56:26;4.63;;;1.80;;
37339;SDS011;23223;51.006;7.610;2023-08-06T05:58:51;3.15;;;1.60;;
37339;SDS011;23223;51.006;7.610;2023-08-06T06:01:18;2.40;;;1.38;;
37339;SDS011;23223;51.006;7.610;2023-08-06T06:03:44;3.92;;;1.60;;
37339;SDS011;23223;51.006;7.610;2023-08-06T06:06:09;5.50;;;1.75;;
37339;SDS011;23223;51.006;7.610;2023-08-06T06:08:35;6.50;;;2.55;;
37339;SDS011;23223;51.006;7.610;2023-08-06T06:11:00;3.80;;;1.50;;
37339;SDS011;23223;51.006;7.610;2023-08-06T06:13:26;1.98;;;1.38;;
37339;SDS011;23223;51.006;7.610;2023-08-06T06:15:54;2.20;;;1.35;;
37339;SDS011;23223;51.006;7.610;2023-08-06T06:18:20;1.90;;;1.60;;
37339;SDS011;23223;51.006;7.610;2023-08-06T06:20:46;1.42;;;1.20;;
37339;SDS011;23223;51.006;7.610;2023-08-06T06:23:12;1.73;;;1.40;;
37339;SDS011;23223;51.006;7.610;2023-08-06T06:25:41;1.65;;;1.50;;
37339;SDS011;23223;51.006;7.610;2023-08-06T06:28:20;0.85;;;0.80;;
37339;SDS011;23223;51.006;7.610;2023-08-06T06:30:46;1.50;;;1.30;;
37339;SDS011;23223;51.006;7.610;2023-08-06T06:33:12;2.03;;;1.27;;
37339;SDS011;23223;51.006;7.610;2023-08-06T06:35:38;1.95;;;1.20;;
37339;SDS011;23223;51.006;7.610;2023-08-06T06:38:04;6.15;;;1.20;;
37339;SDS011;23223;51.006;7.610;2023-08-06T06:40:29;1.98;;;1.00;;
37339;SDS011;23223;51.006;7.610;2023-08-06T06:42:55;1.20;;;1.10;;
37339;SDS011;23223;51.006;7.610;2023-08-06T06:45:20;2.05;;;1.10;;
37339;SDS011;23223;51.006;7.610;2023-08-06T06:47:46;3.40;;;1.40;;
37339;SDS011;23223;51.006;7.610;2023-08-06T06:50:11;1.98;;;1.15;;
37339;SDS011;23223;51.006;7.610;2023-08-06T06:52:38;0.80;;;0.80;;
37339;SDS011;23223;51.006;7.610;2023-08-06T06:55:04;1.90;;;1.00;;
37339;SDS011;23223;51.006;7.610;2023-08-06T06:57:30;0.77;;;0.65;;
37339;SDS011;23223;51.006;7.610;2023-08-06T06:59:55;2.53;;;1.25;;
37339;SDS011;23223;51.006;7.610;2023-08-06T07:02:21;1.75;;;1.00;;
37339;SDS011;23223;51.006;7.610;2023-08-06T07:04:46;1.10;;;1.00;;
37339;SDS011;23223;51.006;7.610;2023-08-06T07:07:12;1.35;;;1.25;;
37339;SDS011;23223;51.006;7.610;2023-08-06T07:09:37;1.85;;;1.17;;
37339;SDS011;23223;51.006;7.610;2023-08-06T07:12:03;1.27;;;0.90;;
37339;SDS011;23223;51.006;7.610;2023-08-06T07:14:29;0.93;;;0.90;;
37339;SDS011;23223;51.006;7.610;2023-08-06T07:16:55;1.05;;;1.00;;
37339;SDS011;23223;51.006;7.610;2023-08-06T07:19:20;1.42;;;0.90;;
37339;SDS011;23223;51.006;7.610;2023-08-06T07:21:46;0.68;;;0.68;;
37339;SDS011;23223;51.006;7.610;2023-08-06T07:24:11;1.45;;;0.70;;
37339;SDS011;23223;51.006;7.610;2023-08-06T07:26:37;1.20;;;0.98;;
37339;SDS011;23223;51.006;7.610;2023-08-06T07:29:03;0.60;;;0.60;;
37339;SDS011;23223;51.006;7.610;2023-08-06T07:31:29;0.57;;;0.57;;
37339;SDS011;23223;51.006;7.610;2023-08-06T07:33:54;1.00;;;0.70;;
37339;SDS011;23223;51.006;7.610;2023-08-06T07:36:20;0.73;;;0.73;;
37339;SDS011;23223;51.006;7.610;2023-08-06T07:38:45;1.00;;;0.68;;
37339;SDS011;23223;51.006;7.610;2023-08-06T07:41:11;0.73;;;0.73;;
37339;SDS011;23223;51.006;7.610;2023-08-06T07:43:37;1.75;;;0.75;;
37339;SDS011;23223;51.006;7.610;2023-08-06T07:46:02;1.95;;;0.70;;
37339;SDS011;23223;51.006;7.610;2023-08-06T07:48:28;0.77;;;0.60;;
37339;SDS011;23223;51.006;7.610;2023-08-06T07:50:54;0.60;;;0.60;;
37339;SDS011;23223;51.006;7.610;2023-08-06T07:53:24;1.17;;;0.73;;
37339;SDS011;23223;51.006;7.610;2023-08-06T07:55:54;0.50;;;0.50;;
37339;SDS011;23223;51.006;7.610;2023-08-06T07:58:20;0.73;;;0.73;;
37339;SDS011;23223;51.006;7.610;2023-08-06T08:00:46;0.85;;;0.60;;
37339;SDS011;23223;51.006;7.610;2023-08-06T08:03:12;1.15;;;0.60;;
37339;SDS011;23223;51.006;7.610;2023-08-06T08:05:39;0.50;;;0.50;;
37339;SDS011;23223;51.006;7.610;2023-08-06T08:08:05;0.70;;;0.43;;
37339;SDS011;23223;51.006;7.610;2023-08-06T08:10:31;0.68;;;0.40;;
37339;SDS011;23223;51.006;7.610;2023-08-06T08:12:57;0.40;;;0.40;;
37339;SDS011;23223;51.006;7.610;2023-08-06T08:15:24;1.48;;;0.40;;
37339;SDS011;23223;51.006;7.610;2023-08-06T08:17:51;1.27;;;0.30;;
37339;SDS011;23223;51.006;7.610;2023-08-06T08:20:17;2.28;;;0.50;;
37339;SDS011;23223;51.006;7.610;2023-08-06T08:22:43;2.67;;;0.68;;
37339;SDS011;23223;51.006;7.610;2023-08-06T08:25:08;1.05;;;0.70;;
37339;SDS011;23223;51.006;7.610;2023-08-06T08:27:34;0.65;;;0.65;;
37339;SDS011;23223;51.006;7.610;2023-08-06T08:29:59;0.30;;;0.30;;
37339;SDS011;23223;51.006;7.610;2023-08-06T08:32:25;0.65;;;0.50;;
37339;SDS011;23223;51.006;7.610;2023-08-06T08:34:50;0.65;;;0.40;;
37339;SDS011;23223;51.006;7.610;2023-08-06T08:37:16;0.30;;;0.30;;
37339;SDS011;23223;51.006;7.610;2023-08-06T08:39:41;0.50;;;0.50;;
37339;SDS011;23223;51.006;7.610;2023-08-06T08:42:07;0.40;;;0.30;;
37339;SDS011;23223;51.006;7.610;2023-08-06T08:44:34;0.55;;;0.40;;
37339;SDS011;23223;51.006;7.610;2023-08-06T08:47:04;0.68;;;0.50;;
37339;SDS011;23223;51.006;7.610;2023-08-06T08:49:35;0.45;;;0.30;;
37339;SDS011;23223;51.006;7.610;2023-08-06T08:52:02;1.38;;;0.30;;
37339;SDS011;23223;51.006;7.610;2023-08-06T08:54:32;1.73;;;0.60;;
37339;SDS011;23223;51.006;7.610;2023-08-06T08:56:59;0.35;;;0.35;;
37339;SDS011;23223;51.006;7.610;2023-08-06T08:59:25;1.48;;;0.65;;
37339;SDS011;23223;51.006;7.610;2023-08-06T09:01:51;0.68;;;0.68;;
37339;SDS011;23223;51.006;7.610;2023-08-06T09:04:18;1.30;;;1.20;;
37339;SDS011;23223;51.006;7.610;2023-08-06T09:06:50;1.65;;;1.55;;
37339;SDS011;23223;51.006;7.610;2023-08-06T09:09:19;1.30;;;1.20;;
37339;SDS011;23223;51.006;7.610;2023-08-06T09:11:51;1.33;;;1.15;;
37339;SDS011;23223;51.006;7.610;2023-08-06T09:14:16;1.20;;;1.10;;
37339;SDS011;23223;51.006;7.610;2023-08-06T09:16:43;3.50;;;1.10;;
37339;SDS011;23223;51.006;7.610;2023-08-06T09:19:12;1.52;;;1.42;;
37339;SDS011;23223;51.006;7.610;2023-08-06T09:21:40;4.07;;;1.20;;
37339;SDS011;23223;51.006;7.610;2023-08-06T09:26:39;1.35;;;1.25;;
37339;SDS011;23223;51.006;7.610;2023-08-06T09:29:06;1.17;;;1.17;;
37339;SDS011;23223;51.006;7.610;2023-08-06T09:31:54;2.42;;;1.02;;
37339;SDS011;23223;51.006;7.610;2023-08-06T09:34:22;1.30;;;1.20;;
37339;SDS011;23223;51.006;7.610;2023-08-06T09:36:48;1.55;;;1.10;;
37339;SDS011;23223;51.006;7.610;2023-08-06T09:39:20;1.65;;;1.30;;
37339;SDS011;23223;51.006;7.610;2023-08-06T09:41:47;1.75;;;1.65;;
37339;SDS011;23223;51.006;7.610;2023-08-06T09:46:43;1.20;;;1.20;;
37339;SDS011;23223;51.006;7.610;2023-08-06T09:49:15;1.13;;;1.10;;
37339;SDS011;23223;51.006;7.610;2023-08-06T09:51:42;1.40;;;1.30;;
37339;SDS011;23223;51.006;7.610;2023-08-06T09:54:09;2.92;;;1.20;;
37339;SDS011;23223;51.006;7.610;2023-08-06T09:56:37;1.20;;;1.10;;
37339;SDS011;23223;51.006;7.610;2023-08-06T09:59:06;1.10;;;1.10;;
37339;SDS011;23223;51.006;7.610;2023-08-06T10:01:32;1.20;;;1.10;;
37339;SDS011;23223;51.006;7.610;2023-08-06T10:04:04;1.20;;;1.10;;
37339;SDS011;23223;51.006;7.610;2023-08-06T10:06:36;0.90;;;0.90;;
37339;SDS011;23223;51.006;7.610;2023-08-06T10:09:02;1.02;;;0.60;;
37339;SDS011;23223;51.006;7.610;2023-08-06T10:11:31;1.83;;;1.20;;
37339;SDS011;23223;51.006;7.610;2023-08-06T10:16:38;3.67;;;3.00;;
37339;SDS011;23223;51.006;7.610;2023-08-06T10:19:05;2.25;;;1.45;;
37339;SDS011;23223;51.006;7.610;2023-08-06T10:21:34;2.83;;;1.60;;
37339;SDS011;23223;51.006;7.610;2023-08-06T10:24:00;1.92;;;1.30;;
37339;SDS011;23223;51.006;7.610;2023-08-06T10:26:27;2.40;;;1.50;;
37339;SDS011;23223;51.006;7.610;2023-08-06T10:28:53;1.63;;;1.30;;
37339;SDS011;23223;51.006;7.610;2023-08-06T10:31:20;3.22;;;1.65;;
37339;SDS011;23223;51.006;7.610;2023-08-06T10:34:05;1.48;;;1.38;;
37339;SDS011;23223;51.006;7.610;2023-08-06T10:36:32;3.47;;;1.35;;
37339;SDS011;23223;51.006;7.610;2023-08-06T10:38:58;1.60;;;1.20;;
37339;SDS011;23223;51.006;7.610;2023-08-06T10:41:27;1.33;;;1.30;;
37339;SDS011;23223;51.006;7.610;2023-08-06T10:44:04;1.67;;;1.10;;
37339;SDS011;23223;51.006;7.610;2023-08-06T10:46:32;2.83;;;1.02;;
37339;SDS011;23223;51.006;7.610;2023-08-06T10:48:58;0.77;;;0.60;;
37339;SDS011;23223;51.006;7.610;2023-08-06T10:51:24;1.20;;;1.10;;
37339;SDS011;23223;51.006;7.610;2023-08-06T10:53:50;1.50;;;1.40;;
37339;SDS011;23223;51.006;7.610;2023-08-06T10:56:17;2.17;;;1.73;;
37339;SDS011;23223;51.006;7.610;2023-08-06T10:58:51;1.60;;;1.50;;
37339;SDS011;23223;51.006;7.610;2023-08-06T11:01:19;1.80;;;1.70;;
37339;SDS011;23223;51.006;7.610;2023-08-06T11:03:46;1.50;;;1.40;;
37339;SDS011;23223;51.006;7.610;2023-08-06T11:06:20;2.75;;;1.75;;
37339;SDS011;23223;51.006;7.610;2023-08-06T11:08:48;2.55;;;2.15;;
37339;SDS011;23223;51.006;7.610;2023-08-06T11:11:15;2.42;;;2.22;;
37339;SDS011;23223;51.006;7.610;2023-08-06T11:13:42;4.75;;;2.00;;
37339;SDS011;23223;51.006;7.610;2023-08-06T11:16:14;1.90;;;1.80;;
37339;SDS011;23223;51.006;7.610;2023-08-06T11:18:41;2.25;;;2.15;;
37339;SDS011;23223;51.006;7.610;2023-08-06T11:21:07;3.50;;;3.10;;
37339;SDS011;23223;51.006;7.610;2023-08-06T11:23:33;4.13;;;2.10;;
37339;SDS011;23223;51.006;7.610;2023-08-06T11:26:00;4.88;;;2.67;;
37339;SDS011;23223;51.006;7.610;2023-08-06T11:28:26;4.18;;;2.25;;
37339;SDS011;23223;51.006;7.610;2023-08-06T11:30:51;4.68;;;2.22;;
37339;SDS011;23223;51.006;7.610;2023-08-06T11:33:24;1.80;;;1.70;;
37339;SDS011;23223;51.006;7.610;2023-08-06T11:35:51;1.67;;;1.13;;
37339;SDS011;23223;51.006;7.610;2023-08-06T11:38:17;0.63;;;0.60;;
37339;SDS011;23223;51.006;7.610;2023-08-06T11:40:47;1.67;;;1.17;;
37339;SDS011;23223;51.006;7.610;2023-08-06T11:43:12;3.45;;;1.20;;
37339;SDS011;23223;51.006;7.610;2023-08-06T11:45:39;3.25;;;1.23;;
37339;SDS011;23223;51.006;7.610;2023-08-06T11:48:05;1.92;;;0.90;;
37339;SDS011;23223;51.006;7.610;2023-08-06T11:50:35;0.75;;;0.75;;
37339;SDS011;23223;51.006;7.610;2023-08-06T11:53:01;1.42;;;0.55;;
37339;SDS011;23223;51.006;7.610;2023-08-06T11:55:28;0.93;;;0.60;;
37339;SDS011;23223;51.006;7.610;2023-08-06T11:57:54;3.30;;;0.60;;
37339;SDS011;23223;51.006;7.610;2023-08-06T12:00:22;1.23;;;0.30;;
37339;SDS011;23223;51.006;7.610;2023-08-06T12:02:49;0.25;;;0.25;;
37339;SDS011;23223;51.006;7.610;2023-08-06T12:05:17;0.30;;;0.30;;
37339;SDS011;23223;51.006;7.610;2023-08-06T12:08:06;2.55;;;0.40;;
37339;SDS011;23223;51.006;7.610;2023-08-06T12:10:34;1.33;;;0.85;;
37339;SDS011;23223;51.006;7.610;2023-08-06T12:13:00;0.20;;;0.20;;
37339;SDS011;23223;51.006;7.610;2023-08-06T12:15:25;0.63;;;0.40;;
37339;SDS011;23223;51.006;7.610;2023-08-06T12:17:51;0.57;;;0.40;;
37339;SDS011;23223;51.006;7.610;2023-08-06T12:20:17;0.60;;;0.45;;
37339;SDS011;23223;51.006;7.610;2023-08-06T12:22:42;0.20;;;0.20;;
37339;SDS011;23223;51.006;7.610;2023-08-06T12:25:09;0.55;;;0.43;;
37339;SDS011;23223;51.006;7.610;2023-08-06T12:27:41;0.38;;;0.30;;
37339;SDS011;23223;51.006;7.610;2023-08-06T12:30:08;0.30;;;0.30;;
37339;SDS011;23223;51.006;7.610;2023-08-06T12:32:34;0.38;;;0.38;;
37339;SDS011;23223;51.006;7.610;2023-08-06T12:35:00;0.55;;;0.55;;
37339;SDS011;23223;51.006;7.610;2023-08-06T12:37:28;1.85;;;0.50;;
37339;SDS011;23223;51.006;7.610;2023-08-06T12:39:55;0.85;;;0.50;;
37339;SDS011;23223;51.006;7.610;2023-08-06T12:42:21;0.85;;;0.57;;
37339;SDS011;23223;51.006;7.610;2023-08-06T12:44:49;0.60;;;0.60;;
37339;SDS011;23223;51.006;7.610;2023-08-06T12:47:18;0.80;;;0.57;;
37339;SDS011;23223;51.006;7.610;2023-08-06T12:49:45;0.50;;;0.50;;
37339;SDS011;23223;51.006;7.610;2023-08-06T12:52:10;3.70;;;0.73;;
37339;SDS011;23223;51.006;7.610;2023-08-06T12:54:37;0.75;;;0.60;;
37339;SDS011;23223;51.006;7.610;2023-08-06T12:57:03;1.90;;;1.70;;
37339;SDS011;23223;51.006;7.610;2023-08-06T12:59:29;1.63;;;1.00;;
37339;SDS011;23223;51.006;7.610;2023-08-06T13:01:55;1.30;;;0.68;;
37339;SDS011;23223;51.006;7.610;2023-08-06T13:04:21;3.83;;;0.82;;
37339;SDS011;23223;51.006;7.610;2023-08-06T13:06:47;1.45;;;0.70;;
37339;SDS011;23223;51.006;7.610;2023-08-06T13:09:13;3.05;;;1.08;;
37339;SDS011;23223;51.006;7.610;2023-08-06T13:11:39;2.75;;;0.90;;
37339;SDS011;23223;51.006;7.610;2023-08-06T13:14:06;1.75;;;0.93;;
37339;SDS011;23223;51.006;7.610;2023-08-06T13:16:33;1.08;;;0.60;;
37339;SDS011;23223;51.006;7.610;2023-08-06T13:19:00;0.77;;;0.70;;
37339;SDS011;23223;51.006;7.610;2023-08-06T13:21:32;1.95;;;1.05;;
37339;SDS011;23223;51.006;7.610;2023-08-06T13:23:59;1.88;;;1.20;;
37339;SDS011;23223;51.006;7.610;2023-08-06T13:26:27;1.42;;;0.90;;
37339;SDS011;23223;51.006;7.610;2023-08-06T13:28:53;1.35;;;1.02;;
37339;SDS011;23223;51.006;7.610;2023-08-06T13:31:19;1.48;;;1.25;;
37339;SDS011;23223;51.006;7.610;2023-08-06T13:33:45;2.30;;;1.05;;
37339;SDS011;23223;51.006;7.610;2023-08-06T13:36:12;2.00;;;1.20;;
37339;SDS011;23223;51.006;7.610;2023-08-06T13:38:37;1.27;;;1.00;;
37339;SDS011;23223;51.006;7.610;2023-08-06T13:41:03;3.45;;;1.08;;
37339;SDS011;23223;51.006;7.610;2023-08-06T13:43:29;1.02;;;0.90;;
37339;SDS011;23223;51.006;7.610;2023-08-06T13:45:54;2.00;;;1.00;;
37339;SDS011;23223;51.006;7.610;2023-08-06T13:48:20;1.67;;;1.05;;
37339;SDS011;23223;51.006;7.610;2023-08-06T13:50:45;1.27;;;1.10;;
37339;SDS011;23223;51.006;7.610;2023-08-06T13:53:11;1.85;;;0.90;;
37339;SDS011;23223;51.006;7.610;2023-08-06T13:55:36;1.10;;;0.98;;
37339;SDS011;23223;51.006;7.610;2023-08-06T13:58:02;1.08;;;0.98;;
37339;SDS011;23223;51.006;7.610;2023-08-06T14:00:27;4.05;;;1.10;;
37339;SDS011;23223;51.006;7.610;2023-08-06T14:02:53;0.60;;;0.47;;
37339;SDS011;23223;51.006;7.610;2023-08-06T14:05:19;1.30;;;1.08;;
37339;SDS011;23223;51.006;7.610;2023-08-06T14:07:44;1.45;;;1.35;;
37339;SDS011;23223;51.006;7.610;2023-08-06T14:10:10;1.65;;;1.55;;
37339;SDS011;23223;51.006;7.610;2023-08-06T14:15:57;2.38;;;1.42;;
37339;SDS011;23223;51.006;7.610;2023-08-06T14:18:23;0.77;;;0.70;;
37339;SDS011;23223;51.006;7.610;2023-08-06T14:20:48;2.15;;;1.40;;
37339;SDS011;23223;51.006;7.610;2023-08-06T14:23:14;1.70;;;1.38;;
37339;SDS011;23223;51.006;7.610;2023-08-06T14:25:40;2.17;;;1.45;;
37339;SDS011;23223;51.006;7.610;2023-08-06T14:28:05;12.50;;;2.17;;
37339;SDS011;23223;51.006;7.610;2023-08-06T14:30:31;1.95;;;1.75;;
37339;SDS011;23223;51.006;7.610;2023-08-06T14:32:58;5.13;;;1.65;;
37339;SDS011;23223;51.006;7.610;2023-08-06T14:35:25;6.18;;;1.17;;
37339;SDS011;23223;51.006;7.610;2023-08-06T14:37:51;10.32;;;1.48;;
37339;SDS011;23223;51.006;7.610;2023-08-06T14:40:16;6.53;;;1.55;;
37339;SDS011;23223;51.006;7.610;2023-08-06T14:42:42;1.45;;;1.35;;
37339;SDS011;23223;51.006;7.610;2023-08-06T14:45:07;3.53;;;1.30;;
37339;SDS011;23223;51.006;7.610;2023-08-06T14:47:33;2.55;;;1.00;;
37339;SDS011;23223;51.006;7.610;2023-08-06T14:49:59;2.58;;;0.82;;
37339;SDS011;23223;51.006;7.610;2023-08-06T14:52:24;2.53;;;1.10;;
37339;SDS011;23223;51.006;7.610;2023-08-06T14:54:50;2.53;;;1.00;;
37339;SDS011;23223;51.006;7.610;2023-08-06T14:57:17;2.25;;;1.40;;
37339;SDS011;23223;51.006;7.610;2023-08-06T14:59:43;1.90;;;1.13;;
37339;SDS011;23223;51.006;7.610;2023-08-06T15:02:08;6.90;;;2.10;;
37339;SDS011;23223;51.006;7.610;2023-08-06T15:04:34;4.88;;;1.63;;